createdAt,value
2023-05-01T00:04:06.266Z,100.00
2023-05-01T00:09:09.491Z,100.00
2023-05-01T00:14:12.540Z,100.00
2023-05-01T00:19:18.997Z,100.00
2023-05-01T00:24:21.786Z,100.00
2023-05-01T00:29:24.553Z,100.00
2023-05-01T00:34:28.940Z,100.00
2023-05-01T00:39:31.804Z,100.00
2023-05-01T00:44:34.642Z,100.00
2023-05-01T00:49:38.952Z,100.00
2023-05-01T00:54:42.018Z,100.00
2023-05-01T00:59:44.684Z,100.00
2023-05-01T01:04:49.257Z,100.00
2023-05-01T01:10:02.445Z,100.00
2023-05-01T01:15:12.810Z,100.00
2023-05-01T01:20:25.485Z,100.00
2023-05-01T01:25:47.014Z,100.00
2023-05-01T01:31:18.767Z,100.00
2023-05-01T01:36:29.174Z,100.00
2023-05-01T01:41:33.122Z,100.00
2023-05-01T01:46:39.300Z,100.00
2023-05-01T01:51:43.367Z,100.00
2023-05-01T01:56:47.580Z,100.00
2023-05-01T02:01:51.278Z,100.00
2023-05-01T02:06:57.070Z,100.00
2023-05-01T02:12:01.685Z,100.00
2023-05-01T02:17:05.504Z,100.00
2023-05-01T02:22:10.416Z,100.00
2023-05-01T02:27:16.984Z,100.00
2023-05-01T02:32:19.933Z,100.00
2023-05-01T02:37:24.193Z,100.00
2023-05-01T02:42:28.112Z,100.00
2023-05-01T02:47:34.238Z,100.00
2023-05-01T02:52:38.635Z,100.00
2023-05-01T02:58:01.803Z,100.00
2023-05-01T03:03:05.172Z,100.00
2023-05-01T03:08:09.984Z,100.00
2023-05-01T03:13:13.028Z,100.00
2023-05-01T03:18:15.979Z,100.00
2023-05-01T03:23:20.066Z,100.00
2023-05-01T03:28:23.530Z,100.00
2023-05-01T03:33:28.088Z,100.00
2023-05-01T03:38:32.810Z,100.00
2023-05-01T03:43:44.562Z,100.00
2023-05-01T03:49:04.756Z,100.00
2023-05-01T03:54:13.406Z,100.00
2023-05-01T03:59:35.356Z,100.00
2023-05-01T04:04:38.271Z,100.00
2023-05-01T04:09:43.699Z,100.00
2023-05-01T04:14:46.908Z,100.00
2023-05-01T04:19:50.235Z,100.00
2023-05-01T04:24:54.628Z,100.00
2023-05-01T04:29:58.060Z,100.00
2023-05-01T04:35:01.317Z,100.00
2023-05-01T04:40:09.694Z,100.00
2023-05-01T04:45:14.438Z,100.00
2023-05-01T04:50:17.099Z,100.00
2023-05-01T04:55:21.224Z,100.00
2023-05-01T05:00:40.662Z,100.00
2023-05-01T05:05:46.769Z,100.00
2023-05-01T05:10:51.169Z,100.00
2023-05-01T05:16:00.992Z,100.00
2023-05-01T05:21:05.576Z,100.00
2023-05-01T05:26:09.802Z,100.00
2023-05-01T05:31:13.080Z,100.00
2023-05-01T05:36:16.203Z,100.00
2023-05-01T05:41:21.560Z,100.00
2023-05-01T05:46:26.520Z,100.00
2023-05-01T05:51:29.268Z,100.00
2023-05-01T05:56:33.878Z,100.00
2023-05-01T06:01:37.247Z,100.00
2023-05-01T06:06:40.180Z,100.00
2023-05-01T06:11:44.251Z,100.00
2023-05-01T06:16:47.490Z,100.00
2023-05-01T06:21:50.203Z,100.00
2023-05-01T06:26:54.810Z,100.00
2023-05-01T06:31:57.788Z,100.00
2023-05-01T06:37:00.876Z,100.00
2023-05-01T06:42:05.136Z,100.00
2023-05-01T06:47:14.771Z,100.00
2023-05-01T06:52:17.548Z,100.00
2023-05-01T06:57:21.597Z,100.00
2023-05-01T07:02:24.364Z,100.00
2023-05-01T07:07:27.118Z,100.00
2023-05-01T07:12:31.534Z,100.00
2023-05-01T07:17:34.270Z,100.00
2023-05-01T07:22:37.116Z,100.00
2023-05-01T07:27:41.587Z,100.00
2023-05-01T07:32:44.266Z,100.00
2023-05-01T07:37:46.934Z,100.00
2023-05-01T07:42:52.355Z,100.00
2023-05-01T07:47:57.075Z,100.00
2023-05-01T07:52:59.996Z,100.00
2023-05-01T07:58:04.113Z,100.00
2023-05-01T08:03:07.189Z,100.00
2023-05-01T08:08:10.103Z,100.00
2023-05-01T08:13:14.152Z,100.00
2023-05-01T08:18:20.961Z,100.00
2023-05-01T08:23:25.206Z,100.00
2023-05-01T08:28:29.272Z,100.00
2023-05-01T08:33:31.996Z,100.00
2023-05-01T08:38:34.651Z,100.00
2023-05-01T08:43:40.810Z,100.00
2023-05-01T08:48:44.118Z,100.00
2023-05-01T08:53:50.355Z,100.00
2023-05-01T08:58:54.910Z,100.00
2023-05-01T09:03:58.508Z,100.00
2023-05-01T09:09:01.351Z,100.00
2023-05-01T09:14:08.312Z,100.00
2023-05-01T09:19:10.991Z,100.00
2023-05-01T09:24:13.686Z,100.00
2023-05-01T09:29:38.473Z,100.00
2023-05-01T09:34:41.193Z,100.00
2023-05-01T09:39:43.855Z,100.00
2023-05-01T09:44:48.730Z,100.00
2023-05-01T09:49:51.408Z,100.00
2023-05-01T09:55:13.638Z,100.00
2023-05-01T10:00:20.732Z,100.00
2023-05-01T10:05:24.641Z,100.00
2023-05-01T10:10:27.679Z,100.00
2023-05-01T10:15:38.585Z,100.00
2023-05-01T10:20:41.286Z,100.00
2023-05-01T10:25:45.371Z,100.00
2023-05-01T10:30:49.986Z,100.00
2023-05-01T10:35:57.205Z,100.00
2023-05-01T10:40:59.856Z,100.00
2023-05-01T10:46:33.431Z,100.00
2023-05-01T10:51:36.156Z,100.00
2023-05-01T10:56:45.220Z,100.00
2023-05-01T11:01:51.859Z,100.00
2023-05-01T11:07:17.831Z,100.00
2023-05-01T11:12:52.134Z,92.23
2023-05-01T11:17:56.380Z,99.39
2023-05-01T11:22:59.580Z,97.25
2023-05-01T11:28:03.130Z,100.00
2023-05-01T11:33:10.106Z,100.00
2023-05-01T11:38:18.585Z,97.22
2023-05-01T11:43:21.544Z,93.01
2023-05-01T11:48:25.601Z,95.33
2023-05-01T11:53:28.716Z,100.00
2023-05-01T11:58:33.509Z,87.08
2023-05-01T12:03:43.540Z,84.59
2023-05-01T12:08:51.061Z,86.73
2023-05-01T12:13:54.130Z,85.42
2023-05-01T12:18:58.280Z,84.55
2023-05-01T12:24:09.305Z,79.42
2023-05-01T12:29:12.299Z,71.79
2023-05-01T12:34:16.389Z,62.43
2023-05-01T12:39:19.144Z,64.90
2023-05-01T12:44:23.560Z,66.98
2023-05-01T12:49:28.306Z,66.57
2023-05-01T12:54:31.978Z,62.09
2023-05-01T12:59:35.527Z,65.58
2023-05-01T13:04:40.995Z,66.69
2023-05-01T13:09:53.047Z,64.91
2023-05-01T13:14:56.309Z,64.10
2023-05-01T13:20:05.647Z,68.26
2023-05-01T13:25:20.476Z,61.13
2023-05-01T13:30:32.927Z,59.43
2023-05-01T13:35:39.118Z,59.88
2023-05-01T13:40:41.871Z,62.68
2023-05-01T13:45:44.772Z,62.01
2023-05-01T13:50:48.866Z,60.13
2023-05-01T13:55:51.857Z,61.49
2023-05-01T14:00:54.661Z,58.81
2023-05-01T14:05:58.799Z,59.87
2023-05-01T14:11:01.474Z,63.53
2023-05-01T14:16:09.507Z,61.92
2023-05-01T14:21:14.336Z,62.64
2023-05-01T14:26:19.428Z,64.79
2023-05-01T14:31:27.048Z,67.15
2023-05-01T14:36:32.771Z,69.60
2023-05-01T14:41:38.169Z,71.07
2023-05-01T14:46:46.634Z,71.52
2023-05-01T14:51:50.937Z,67.72
2023-05-01T14:56:53.770Z,69.10
2023-05-01T15:01:56.566Z,69.07
2023-05-01T15:07:00.754Z,68.72
2023-05-01T15:12:06.744Z,67.47
2023-05-01T15:17:10.519Z,73.00
2023-05-01T15:22:14.552Z,71.89
2023-05-01T15:27:17.715Z,77.00
2023-05-01T15:32:20.654Z,72.77
2023-05-01T15:37:24.779Z,73.90
2023-05-01T15:42:27.641Z,83.72
2023-05-01T15:47:30.544Z,79.67
2023-05-01T15:52:35.940Z,85.04
2023-05-01T15:57:38.637Z,92.83
2023-05-01T16:02:41.425Z,100.00
2023-05-01T16:07:46.051Z,100.00
2023-05-01T16:12:50.467Z,100.00
2023-05-01T16:17:54.937Z,100.00
2023-05-01T16:22:59.925Z,100.00
2023-05-01T16:28:06.180Z,100.00
2023-05-01T16:33:12.249Z,100.00
2023-05-01T16:38:16.494Z,100.00
2023-05-01T16:43:19.220Z,100.00
2023-05-01T16:48:24.731Z,100.00
2023-05-01T16:53:28.817Z,100.00
2023-05-01T16:58:31.790Z,100.00
2023-05-01T17:03:34.958Z,100.00
2023-05-01T17:08:39.003Z,100.00
2023-05-01T17:13:41.729Z,100.00
2023-05-01T17:18:44.456Z,100.00
2023-05-01T17:23:48.466Z,100.00
2023-05-01T17:28:51.210Z,100.00
2023-05-01T17:33:53.843Z,100.00
2023-05-01T17:38:59.966Z,100.00
2023-05-01T17:44:02.643Z,100.00
2023-05-01T17:49:06.012Z,100.00
2023-05-01T17:54:10.579Z,100.00
2023-05-01T17:59:13.564Z,100.00
2023-05-01T18:04:16.317Z,100.00
2023-05-01T18:09:20.481Z,100.00
2023-05-01T18:14:23.141Z,100.00
2023-05-01T18:19:26.034Z,100.00
2023-05-01T18:24:30.051Z,100.00
2023-05-01T18:29:32.779Z,100.00
2023-05-01T18:34:35.475Z,100.00
2023-05-01T18:39:39.748Z,100.00
2023-05-01T18:44:42.558Z,100.00
2023-05-01T18:49:45.282Z,100.00
2023-05-01T18:54:49.292Z,100.00
2023-05-01T18:59:51.936Z,100.00
2023-05-01T19:04:58.016Z,100.00
2023-05-01T19:10:02.558Z,100.00
2023-05-01T19:15:05.626Z,100.00
2023-05-01T19:20:09.701Z,100.00
2023-05-01T19:25:13.721Z,100.00
2023-05-01T19:30:16.405Z,100.00
2023-05-01T19:35:19.128Z,100.00
2023-05-01T19:40:23.358Z,100.00
2023-05-01T19:45:26.276Z,100.00
2023-05-01T19:50:28.972Z,100.00
2023-05-01T19:55:33.485Z,100.00
2023-05-01T20:00:36.457Z,100.00
2023-05-01T20:05:39.293Z,100.00
2023-05-01T20:10:43.346Z,100.00
2023-05-01T20:15:46.064Z,100.00
2023-05-01T20:20:48.866Z,100.00
2023-05-01T20:25:53.583Z,100.00
2023-05-01T20:30:56.850Z,100.00
2023-05-01T20:36:00.235Z,100.00
2023-05-01T20:41:04.276Z,100.00
2023-05-01T20:46:07.242Z,100.00
2023-05-01T20:51:10.277Z,100.00
2023-05-01T20:56:14.620Z,100.00
2023-05-01T21:01:17.331Z,100.00
2023-05-01T21:06:20.264Z,100.00
2023-05-01T21:11:24.326Z,100.00
2023-05-01T21:16:28.909Z,100.00
2023-05-01T21:21:31.614Z,100.00
2023-05-01T21:26:35.909Z,100.00
2023-05-01T21:31:39.661Z,100.00
2023-05-01T21:36:44.911Z,100.00
2023-05-01T21:41:49.853Z,100.00
2023-05-01T21:46:54.744Z,100.00
2023-05-01T21:52:00.138Z,100.00
2023-05-01T21:57:07.519Z,100.00
2023-05-01T22:02:11.448Z,100.00
2023-05-01T22:07:14.161Z,100.00
2023-05-01T22:12:18.210Z,100.00
2023-05-01T22:17:24.116Z,100.00
2023-05-01T22:22:27.021Z,100.00
2023-05-01T22:27:31.244Z,100.00
2023-05-01T22:32:34.035Z,100.00
2023-05-01T22:37:36.926Z,100.00
2023-05-01T22:42:41.090Z,100.00
2023-05-01T22:47:43.879Z,100.00
2023-05-01T22:52:46.692Z,100.00
2023-05-01T22:57:50.947Z,100.00
2023-05-01T23:02:53.717Z,100.00
2023-05-01T23:07:56.475Z,100.00
2023-05-01T23:13:00.567Z,100.00
2023-05-01T23:18:03.323Z,100.00
2023-05-01T23:23:07.035Z,100.00
2023-05-01T23:28:11.113Z,100.00
2023-05-01T23:33:14.660Z,100.00
2023-05-01T23:38:17.586Z,100.00
2023-05-01T23:43:21.790Z,100.00
2023-05-01T23:48:24.636Z,100.00
2023-05-01T23:53:27.442Z,100.00
2023-05-01T23:58:31.560Z,100.00
